Patuxent River, MD

12:01 PM EDT on April 27, 2015 (GMT -0400)
APRSWXNET | | Change Station
CLOSE
Current Station
Personal Weather Station
Location: Lexington Park, MD
Elevation: 78 ft
Nearby Weather Stations

Elev 78 ft 38.25 °N, 76.45 °W | Updated 34 minutes ago

Scattered Clouds
Scattered Clouds
62 °F
Feels Like 62 °F
N
1
Wind Variable Wind from NNW
Gusts 8.0 mph

Today
High -- | Low -- °F
--% Chance of Precip.
Yesterday
High -- | Low -- °F
Precip. -- in
6:14 AM 7:53 PM
Waxing Gibbous, 66% visible
Pressure 29.78 in
Visibility 10.0 miles
Clouds Few 5000 ft
Scattered Clouds 7500 ft
Dew Point 42 °F
Humidity 47%
Rainfall in
Snow Depth Not available.
UV 8 out of 12
Pollen 7.10 out of 12
Air Quality Not available.
Flu Activity Regional
METAR KNHK 271552Z 05008KT 10SM FEW050 SCT075 13/02 A2978 RMK AO2 SLP085 T01330022

More Conditions Fewer Conditions

Pressure 29.78 in
Visibility 10.0 miles
Clouds Few 5000 ft
Scattered Clouds 7500 ft
Dew Point 42 °F
Humidity 47%
Rainfall in
Snow Depth Not available.
UV 8 out of 12
Pollen 7.10 out of 12
Air Quality Not available.
Flu Activity Regional
METAR KNHK 271552Z 05008KT 10SM FEW050 SCT075 13/02 A2978 RMK AO2 SLP085 T01330022

More Conditions Fewer Conditions

10-Day Weather Forecast

Almanac

Astronomy

Apr. 27, 2015 Rise Set
Actual Time
Civil Twilight
Nautical Twilight
Astronomical Twilight
Moon
Length of Visible Light
Length of Day
Tomorrow will be .
, % of the Moon is Illuminated

Today's Extremes

State Highs State Lows

Community

WunderPhotos

Upload Photos

1,817,333 photos uploaded!

WunderBlogs® & News

Nearby

Air Quality

  Air Quality AQ Index Pollutant
Not available.

Snow Depth

Station Depth Elevation

Earthquake Activity

City Distance Mag. Time & Date
Minimum magnitude displayed is 2.5.

Coastal Water Temperatures

Place Temperature

Stations

Nearby Weather Stations

Station Location Temp. Windchill Dew Point Humidity Wind Precip. Elev Updated Type